Time;durP1;ratioP1;P1;durP2;ratioP2;P2;SDS_P1;SDS_P2;PMS_P1;PMS_P2;Temp;Humidity;BMP_temperature;BMP_pressure;BME280_temperature;BME280_humidity;BME280_pressure;Samples;Min_cycle;Max_cycle;Signal;HPM_P1;HPM_P2
2021/11/16 00:00:26;;;;;;;;;;;;;;;20.42;53.76;100188.88;2066254;28;19917;-62
2021/11/16 00:01:27;;;;;;;;;;;;;;;20.43;53.91;100190.63;2074572;28;20509;-63
2021/11/16 00:02:27;;;;;;;;;;;;;;;20.45;53.78;100190.44;2073961;28;19914;-63
2021/11/16 00:03:28;;;;;;;;;;;;;;;20.46;53.75;100183.97;2072685;28;19913;-63
2021/11/16 00:04:28;;;;;;;;;;;;;;;20.46;53.73;100195.78;2073041;28;19917;-63
2021/11/16 00:05:29;;;;;;;;;;;;;;;20.46;53.77;100195.78;2070720;28;19913;-64
2021/11/16 00:06:29;;;;;;;;;;;;;;;20.47;53.63;100197.47;2070473;28;19917;-64
2021/11/16 00:07:29;;;;;;;;;;;;;;;20.47;53.79;100186.53;2074856;28;19935;-63
2021/11/16 00:08:30;;;;;;;;;;;;;;;20.48;53.68;100182.78;2071206;28;19939;-63
2021/11/16 00:09:30;;;;;;;;;;;;;;;20.47;53.69;100186.53;2071736;28;19914;-63
2021/11/16 00:10:30;;;;;;;;;;;;;;;20.49;53.49;100181.75;2069057;28;19944;-63
2021/11/16 00:11:31;;;;;;;;;;;;;;;20.48;53.49;100182.78;2075774;28;19917;-64
2021/11/16 00:12:32;;;;;;;;;;;;;;;20.49;53.79;100180.91;2075325;28;19920;-63
2021/11/16 00:13:32;;;;;;;;;;;;;;;20.52;53.58;100183.31;2071601;28;19920;-64
2021/11/16 00:14:33;;;;;;;;;;;;;;;20.50;53.61;100179.88;2073316;28;20454;-64
2021/11/16 00:15:33;;;;;;;;;;;;;;;20.52;53.75;100194.28;2074322;28;19913;-64
2021/11/16 00:16:36;;;;;;;;;;;;;;;20.53;53.51;100185.91;2074644;28;20733;-64
2021/11/16 00:17:37;;;;;;;;;;;;;;;20.52;53.55;100189.66;2070805;28;19920;-64
2021/11/16 00:18:37;;;;;;;;;;;;;;;20.54;53.51;100197.72;2075502;28;19923;-64
2021/11/16 00:19:38;;;;;;;;;;;;;;;20.53;53.58;100185.91;2069849;28;20575;-64
2021/11/16 00:20:44;;;;;;;;;;;;;;;20.53;53.50;100191.41;2074364;28;19913;-64
2021/11/16 00:21:45;;;;;;;;;;;;;;;20.54;53.59;100194.97;2072028;28;19979;-64
2021/11/16 00:22:46;;;;;;;;;;;;;;;20.55;53.36;100191.25;2073781;28;20011;-63
2021/11/16 00:23:52;;;;;;;;;;;;;;;20.56;53.35;100192.97;2069763;28;19924;-63
2021/11/16 00:26:09;;;;;;;;;;;;;;;20.61;53.39;100195.25;2073510;28;19962;-64
2021/11/16 00:27:09;;;;;;;;;;;;;;;20.62;53.46;100194.22;2071055;28;20271;-63
2021/11/16 00:28:10;;;;;;;;;;;;;;;20.64;53.37;100194.94;2072865;28;19920;-63
2021/11/16 00:29:11;;;;;;;;;;;;;;;20.65;53.32;100193.91;2075826;28;19905;-64
2021/11/16 00:30:12;;;;;;;;;;;;;;;20.68;53.36;100193.59;2070625;28;19916;-63
2021/11/16 00:31:12;;;;;;;;;;;;;;;20.69;53.30;100187.94;2073176;28;19917;-63
2021/11/16 00:32:12;;;;;;;;;;;;;;;20.71;53.37;100194.13;2070785;28;19949;-63
2021/11/16 00:33:13;;;;;;;;;;;;;;;20.72;53.28;100190.38;2070381;28;19917;-63
2021/11/16 00:34:13;;;;;;;;;;;;;;;20.75;53.22;100189.22;2075488;28;19912;-63
2021/11/16 00:35:14;;;;;;;;;;;;;;;20.76;53.15;100182.72;2074736;28;20442;-63
2021/11/16 00:36:15;;;;;;;;;;;;;;;20.77;53.07;100176.19;2073818;28;20439;-63
2021/11/16 00:37:16;;;;;;;;;;;;;;;20.79;52.76;100179.66;2071932;28;19909;-64
2021/11/16 00:38:18;;;;;;;;;;;;;;;20.81;52.88;100177.63;2073770;28;20001;-63
2021/11/16 00:39:20;;;;;;;;;;;;;;;20.83;52.76;100174.72;2071097;28;19916;-63
2021/11/16 00:40:20;;;;;;;;;;;;;;;20.84;53.03;100177.28;2073995;28;19909;-63
2021/11/16 00:41:21;;;;;;;;;;;;;;;20.86;52.63;100178.00;2073283;28;19913;-63
2021/11/16 00:42:22;;;;;;;;;;;;;;;20.87;52.61;100177.00;2070789;28;19924;-63
2021/11/16 00:43:22;;;;;;;;;;;;;;;20.88;52.68;100177.84;2073629;28;19913;-63
2021/11/16 00:44:23;;;;;;;;;;;;;;;20.89;52.50;100174.06;2073500;28;20413;-65
2021/11/16 00:45:23;;;;;;;;;;;;;;;20.88;52.58;100173.22;2074994;28;19916;-63
2021/11/16 00:46:24;;;;;;;;;;;;;;;20.89;52.68;100177.66;2073595;28;19909;-63
2021/11/16 00:47:24;;;;;;;;;;;;;;;20.89;52.60;100180.41;2075617;28;19913;-64
2021/11/16 00:48:25;;;;;;;;;;;;;;;20.89;52.48;100174.94;2071826;28;20019;-63
2021/11/16 00:49:26;;;;;;;;;;;;;;;20.90;52.54;100176.66;2071331;28;19995;-64
2021/11/16 00:50:26;;;;;;;;;;;;;;;20.90;52.68;100175.81;2071996;28;19913;-64
2021/11/16 00:51:27;;;;;;;;;;;;;;;20.91;52.60;100169.28;2069860;28;19923;-64
2021/11/16 00:52:27;;;;;;;;;;;;;;;20.92;52.48;100173.75;2075064;28;20006;-64
2021/11/16 00:53:29;;;;;;;;;;;;;;;20.93;52.56;100167.25;2065109;28;19913;-64
2021/11/16 00:54:30;;;;;;;;;;;;;;;20.94;52.56;100177.19;2066530;28;19939;-64
2021/11/16 00:55:30;;;;;;;;;;;;;;;20.93;52.38;100176.34;2071342;28;20482;-64
2021/11/16 00:56:30;;;;;;;;;;;;;;;20.94;52.39;100178.03;2077253;28;20387;-63
2021/11/16 00:57:30;;;;;;;;;;;;;;;20.94;52.46;100178.03;2072701;28;20346;-64
2021/11/16 00:58:31;;;;;;;;;;;;;;;20.94;52.43;100178.03;2075651;28;19982;-64
2021/11/16 00:59:32;;;;;;;;;;;;;;;20.94;52.48;100172.56;2064693;28;20570;-64
2021/11/16 01:00:33;;;;;;;;;;;;;;;20.95;52.63;100179.78;2067214;28;20362;-64
2021/11/16 01:01:33;;;;;;;;;;;;;;;20.95;52.49;100176.19;2075413;28;19912;-63
2021/11/16 01:02:34;;;;;;;;;;;;;;;20.94;52.56;100179.94;2065649;28;20209;-63
2021/11/16 01:03:34;;;;;;;;;;;;;;;20.95;52.57;100187.16;2062381;28;20392;-64
2021/11/16 01:04:34;;;;;;;;;;;;;;;20.93;52.55;100181.81;2073212;28;21623;-63
2021/11/16 01:05:35;;;;;;;;;;;;;;;20.94;52.72;100191.75;2072363;28;19921;-63
2021/11/16 01:06:35;;;;;;;;;;;;;;;20.94;52.39;100189.00;2075088;28;20511;-64
2021/11/16 01:07:36;;;;;;;;;;;;;;;20.93;52.48;100192.78;2072799;28;19913;-63
2021/11/16 01:08:36;;;;;;;;;;;;;;;20.94;52.64;100197.22;2073655;28;20030;-64
2021/11/16 01:09:36;;;;;;;;;;;;;;;20.95;52.57;100189.88;2072921;28;20515;-64
2021/11/16 01:10:38;;;;;;;;;;;;;;;20.95;52.48;100193.47;2073245;28;19952;-64
2021/11/16 01:11:38;;;;;;;;;;;;;;;20.95;52.62;100193.47;2075346;28;20014;-64
2021/11/16 01:12:39;;;;;;;;;;;;;;;20.96;52.61;100192.44;2071878;28;19942;-63
2021/11/16 01:13:39;;;;;;;;;;;;;;;20.96;52.66;100186.97;2070477;28;19921;-64
2021/11/16 01:14:40;;;;;;;;;;;;;;;20.96;52.38;100192.44;2072041;28;19939;-63
2021/11/16 01:15:41;;;;;;;;;;;;;;;20.97;52.26;100188.72;2074235;28;19912;-63
2021/11/16 01:16:43;;;;;;;;;;;;;;;20.96;52.41;100192.44;2072372;28;20627;-64
2021/11/16 01:17:43;;;;;;;;;;;;;;;20.96;52.41;100186.97;2075437;28;19916;-63
2021/11/16 01:18:43;;;;;;;;;;;;;;;20.96;52.28;100197.94;2076526;28;20174;-63
2021/11/16 01:19:46;;;;;;;;;;;;;;;20.96;52.39;100192.44;2073211;28;19925;-62
2021/11/16 01:20:47;;;;;;;;;;;;;;;20.97;52.59;100198.81;2077967;28;19920;-62
2021/11/16 01:21:47;;;;;;;;;;;;;;;20.97;52.39;100193.34;2069667;28;20455;-63
2021/11/16 01:22:49;;;;;;;;;;;;;;;20.97;52.49;100196.94;2071193;28;19917;-63
2021/11/16 01:23:50;;;;;;;;;;;;;;;20.97;52.28;100187.84;2075231;28;19909;-62
2021/11/16 01:24:50;;;;;;;;;;;;;;;20.98;52.62;100190.41;2074682;28;19970;-62
2021/11/16 01:25:51;;;;;;;;;;;;;;;21.00;52.59;100194.91;2059779;28;19913;-62
2021/11/16 01:26:52;;;;;;;;;;;;;;;20.98;52.60;100190.41;2067922;28;20041;-63
2021/11/16 01:27:56;;;;;;;;;;;;;;;21.00;52.50;100193.00;2074427;28;19916;-64
2021/11/16 01:28:59;;;;;;;;;;;;;;;21.00;52.19;100184.78;2068910;28;19913;-63
2021/11/16 01:29:59;;;;;;;;;;;;;;;21.00;52.28;100184.78;2072023;28;20508;-63
2021/11/16 01:31:03;;;;;;;;;;;;;;;21.01;52.43;100188.38;2075451;28;20019;-63
2021/11/16 01:32:05;;;;;;;;;;;;;;;21.02;52.41;100188.22;2072839;28;19982;-63
2021/11/16 01:33:09;;;;;;;;;;;;;;;21.03;52.33;100186.34;2074790;28;19916;-63
2021/11/16 01:34:11;;;;;;;;;;;;;;;21.02;52.45;100185.50;2074260;28;19929;-62
2021/11/16 01:35:12;;;;;;;;;;;;;;;21.03;52.30;100173.50;2070970;28;19909;-63
2021/11/16 01:36:14;;;;;;;;;;;;;;;21.04;52.23;100182.56;2072237;28;19920;-63
2021/11/16 01:37:14;;;;;;;;;;;;;;;21.05;52.44;100184.31;2073950;28;19909;-63
2021/11/16 01:38:16;;;;;;;;;;;;;;;21.06;52.23;100186.00;2074013;28;19908;-62
2021/11/16 01:39:16;;;;;;;;;;;;;;;21.06;52.20;100181.38;2073033;28;19979;-63
2021/11/16 01:40:18;;;;;;;;;;;;;;;21.08;52.28;100183.97;2072677;28;19920;-63
2021/11/16 01:41:20;;;;;;;;;;;;;;;21.09;52.10;100186.56;2075156;28;19948;-63
2021/11/16 01:42:21;;;;;;;;;;;;;;;21.11;51.96;100183.66;2071853;28;20384;-63
2021/11/16 01:43:21;;;;;;;;;;;;;;;21.10;51.99;100182.78;2075313;28;20568;-63
2021/11/16 01:44:21;;;;;;;;;;;;;;;21.13;52.15;100187.09;2075367;28;19924;-64
2021/11/16 01:45:22;;;;;;;;;;;;;;;21.13;52.13;100187.09;2073482;28;20762;-63
2021/11/16 01:46:23;;;;;;;;;;;;;;;21.13;52.10;100187.09;2072019;28;19916;-63
2021/11/16 01:47:23;;;;;;;;;;;;;;;21.12;52.21;100186.25;2071631;28;20309;-64
2021/11/16 01:48:24;;;;;;;;;;;;;;;21.13;52.22;100181.63;2075885;28;19952;-63
2021/11/16 01:49:25;;;;;;;;;;;;;;;21.11;52.19;100195.47;2073286;28;19982;-63
2021/11/16 01:50:26;;;;;;;;;;;;;;;21.11;52.22;100179.03;2074261;28;19916;-63
2021/11/16 01:51:28;;;;;;;;;;;;;;;21.10;52.16;100176.47;2074281;28;19994;-62
2021/11/16 01:52:28;;;;;;;;;;;;;;;21.10;52.10;100181.94;2070315;28;20016;-63
2021/11/16 01:53:28;;;;;;;;;;;;;;;21.10;51.97;100176.47;2076012;28;19912;-63
2021/11/16 01:54:29;;;;;;;;;;;;;;;21.09;52.15;100174.72;2072142;28;19970;-63
2021/11/16 01:55:29;;;;;;;;;;;;;;;21.09;52.09;100180.19;2071450;28;19982;-63
2021/11/16 01:56:31;;;;;;;;;;;;;;;21.08;52.19;100179.34;2072512;28;21534;-63
2021/11/16 01:57:31;;;;;;;;;;;;;;;21.07;52.17;100174.00;2073611;28;19909;-63
2021/11/16 01:58:32;;;;;;;;;;;;;;;21.07;52.19;100179.50;2074082;28;19924;-63
2021/11/16 01:59:32;;;;;;;;;;;;;;;21.06;52.03;100175.06;2071106;28;19909;-63
2021/11/16 02:00:35;;;;;;;;;;;;;;;21.06;52.33;100175.91;2074541;28;19935;-63
2021/11/16 02:01:36;;;;;;;;;;;;;;;21.07;52.18;100171.28;2075694;28;20414;-63
2021/11/16 02:02:37;;;;;;;;;;;;;;;21.06;52.14;100170.44;2076349;28;20007;-63
2021/11/16 02:03:37;;;;;;;;;;;;;;;21.06;52.22;100175.06;2073977;28;19924;-63
2021/11/16 02:04:38;;;;;;;;;;;;;;;21.06;51.97;100166.81;2073346;28;19917;-62
2021/11/16 02:05:41;;;;;;;;;;;;;;;21.06;52.19;100169.56;2069797;28;19921;-63
2021/11/16 02:06:42;;;;;;;;;;;;;;;21.06;52.26;100170.44;2072813;28;19995;-64
2021/11/16 02:07:46;;;;;;;;;;;;;;;21.06;52.05;100166.81;2075019;28;19917;-63
2021/11/16 02:08:48;;;;;;;;;;;;;;;21.07;52.12;100171.28;2071567;28;19917;-64
2021/11/16 02:09:48;;;;;;;;;;;;;;;21.07;52.26;100174.00;2074142;28;19952;-63
2021/11/16 02:10:50;;;;;;;;;;;;;;;21.05;51.93;100178.81;2074905;28;20418;-63
2021/11/16 02:11:50;;;;;;;;;;;;;;;21.07;51.98;100177.66;2072737;28;19909;-63
2021/11/16 02:12:51;;;;;;;;;;;;;;;21.06;51.91;100172.31;2077163;28;19952;-64
2021/11/16 02:13:51;;;;;;;;;;;;;;;21.06;52.23;100172.31;2073271;28;19967;-63
2021/11/16 02:14:52;;;;;;;;;;;;;;;21.04;52.11;100177.09;2074060;28;19916;-66
2021/11/16 02:15:52;;;;;;;;;;;;;;;20.94;52.13;100172.56;2073706;28;19936;-66
2021/11/16 02:16:53;;;;;;;;;;;;;;;20.82;52.40;100179.31;2074497;28;19917;-66
2021/11/16 02:17:53;;;;;;;;;;;;;;;20.71;52.56;100176.84;2075295;28;19920;-66
2021/11/16 02:18:54;;;;;;;;;;;;;;;20.64;52.55;100181.25;2075087;28;19958;-66
2021/11/16 02:19:55;;;;;;;;;;;;;;;20.57;53.04;100185.63;2066434;28;19909;-66
2021/11/16 02:20:56;;;;;;;;;;;;;;;20.50;53.05;100185.34;2068667;28;19921;-66
2021/11/16 02:21:57;;;;;;;;;;;;;;;20.47;52.94;100186.53;2061312;28;19921;-67
2021/11/16 02:22:57;;;;;;;;;;;;;;;20.43;53.03;100185.13;2066585;28;20029;-67
2021/11/16 02:23:58;;;;;;;;;;;;;;;20.40;53.21;100193.66;2070193;28;19924;-67
2021/11/16 02:24:58;;;;;;;;;;;;;;;20.39;53.09;100193.81;2075098;28;20600;-67
2021/11/16 02:25:59;;;;;;;;;;;;;;;20.36;53.37;100195.00;2074507;28;19917;-66
2021/11/16 02:26:59;;;;;;;;;;;;;;;20.35;53.28;100193.25;2075387;28;19923;-66
2021/11/16 02:28:00;;;;;;;;;;;;;;;20.34;53.52;100197.03;2072417;28;20329;-66
2021/11/16 02:29:02;;;;;;;;;;;;;;;20.33;53.35;100184.31;2074826;28;19905;-66
2021/11/16 02:30:06;;;;;;;;;;;;;;;20.31;53.62;100191.88;2072292;28;20011;-67
2021/11/16 02:31:06;;;;;;;;;;;;;;;20.30;53.39;100190.13;2072007;28;19917;-66
2021/11/16 02:32:07;;;;;;;;;;;;;;;20.29;53.65;100188.41;2075196;28;19917;-66
2021/11/16 02:33:07;;;;;;;;;;;;;;;20.27;53.76;100191.28;2075342;28;19921;-66
2021/11/16 02:34:08;;;;;;;;;;;;;;;20.26;53.65;100192.31;2072302;28;20274;-66
2021/11/16 02:35:08;;;;;;;;;;;;;;;20.25;53.61;100187.00;2074427;28;19917;-66
2021/11/16 02:36:08;;;;;;;;;;;;;;;20.24;53.78;100190.75;2072939;28;19917;-66
2021/11/16 02:37:09;;;;;;;;;;;;;;;20.24;53.75;100185.28;2072188;28;20152;-66
2021/11/16 02:38:10;;;;;;;;;;;;;;;20.23;53.61;100186.28;2073322;28;19924;-65
2021/11/16 02:39:12;;;;;;;;;;;;;;;20.23;53.79;100189.03;2075778;28;19923;-67
2021/11/16 02:40:13;;;;;;;;;;;;;;;20.22;53.94;100187.31;2072277;28;19921;-66
2021/11/16 02:41:14;;;;;;;;;;;;;;;20.21;54.01;100188.31;2073896;28;19912;-67
2021/11/16 02:42:18;;;;;;;;;;;;;;;20.20;53.91;100178.38;2072208;28;19951;-66
2021/11/16 02:43:19;;;;;;;;;;;;;;;20.20;53.77;100189.34;2075533;28;19921;-67
2021/11/16 02:44:20;;;;;;;;;;;;;;;20.18;53.97;100183.16;2072252;28;19917;-67
2021/11/16 02:45:22;;;;;;;;;;;;;;;20.18;54.10;100180.41;2072672;28;19923;-67
2021/11/16 02:46:22;;;;;;;;;;;;;;;20.17;53.95;100185.03;2067005;28;19940;-67
2021/11/16 02:47:22;;;;;;;;;;;;;;;20.15;54.12;100178.84;2067595;28;19923;-66
2021/11/16 02:48:22;;;;;;;;;;;;;;;20.15;54.08;100178.00;2070422;28;19917;-67
2021/11/16 02:49:23;;;;;;;;;;;;;;;20.15;53.95;100180.75;2076102;28;19916;-67
2021/11/16 02:50:24;;;;;;;;;;;;;;;20.13;54.00;100179.00;2073032;28;19932;-66
2021/11/16 02:51:24;;;;;;;;;;;;;;;20.13;54.21;100183.63;2074229;28;20671;-66
2021/11/16 02:52:25;;;;;;;;;;;;;;;20.12;54.23;100182.75;2071785;28;19924;-67
2021/11/16 02:53:25;;;;;;;;;;;;;;;20.12;54.03;100182.75;2074529;28;20285;-66
2021/11/16 02:54:26;;;;;;;;;;;;;;;20.11;54.23;100178.31;2073153;28;19913;-66
2021/11/16 02:55:27;;;;;;;;;;;;;;;20.11;54.17;100185.63;2070898;28;20123;-66
2021/11/16 02:56:27;;;;;;;;;;;;;;;20.11;54.13;100182.91;2076070;28;20027;-67
2021/11/16 02:57:28;;;;;;;;;;;;;;;20.09;54.30;100177.59;2070958;28;20263;-67
2021/11/16 02:58:28;;;;;;;;;;;;;;;20.10;54.13;100173.84;2075382;28;19917;-66
2021/11/16 02:59:28;;;;;;;;;;;;;;;20.09;54.18;100172.13;2067487;28;19905;-67
2021/11/16 03:00:29;;;;;;;;;;;;;;;20.09;54.32;100183.09;2070090;28;19916;-67
2021/11/16 03:01:29;;;;;;;;;;;;;;;20.09;54.14;100174.88;2067472;28;19944;-67
2021/11/16 03:02:30;;;;;;;;;;;;;;;20.09;54.06;100172.13;2072192;28;19925;-66
2021/11/16 03:03:30;;;;;;;;;;;;;;;20.07;54.36;100171.41;2071251;28;19913;-67
2021/11/16 03:04:33;;;;;;;;;;;;;;;20.08;54.28;100169.53;2071994;28;20799;-67
2021/11/16 03:05:35;;;;;;;;;;;;;;;20.06;54.31;100161.50;2069673;28;19959;-66
2021/11/16 03:06:35;;;;;;;;;;;;;;;20.06;54.32;100175.19;2076885;28;19916;-66
2021/11/16 03:07:40;;;;;;;;;;;;;;;20.06;54.19;100169.72;2074102;28;19921;-67
2021/11/16 03:08:41;;;;;;;;;;;;;;;20.06;54.20;100166.09;2072048;28;19923;-67
2021/11/16 03:09:51;;;;;;;;;;;;;;;20.05;54.26;100165.25;2072530;28;19997;-66
2021/11/16 03:10:54;;;;;;;;;;;;;;;20.04;54.31;100165.38;2069342;28;19997;-67
2021/11/16 03:11:56;;;;;;;;;;;;;;;20.04;54.34;100169.00;2072951;28;19943;-67
2021/11/16 03:12:57;;;;;;;;;;;;;;;20.04;54.31;100170.84;2074040;28;19921;-67
2021/11/16 03:13:57;;;;;;;;;;;;;;;20.03;54.30;100171.88;2075191;28;19917;-66
2021/11/16 03:14:58;;;;;;;;;;;;;;;20.02;54.33;100165.56;2071497;28;19917;-66
2021/11/16 03:15:58;;;;;;;;;;;;;;;20.03;54.38;100167.25;2065869;28;19924;-67
2021/11/16 03:16:58;;;;;;;;;;;;;;;20.03;54.32;100167.25;2065423;28;19917;-67
2021/11/16 03:18:00;;;;;;;;;;;;;;;20.03;54.35;100166.41;2071167;28;20603;-67
2021/11/16 03:19:00;;;;;;;;;;;;;;;20.04;54.55;100162.66;2073949;28;20286;-66
2021/11/16 03:20:00;;;;;;;;;;;;;;;20.02;54.44;100164.69;2074249;28;20129;-66
2021/11/16 03:21:01;;;;;;;;;;;;;;;20.02;54.65;100164.69;2075702;28;19917;-66
2021/11/16 03:22:01;;;;;;;;;;;;;;;20.02;54.53;100161.97;2073983;28;19986;-67
2021/11/16 03:23:17;;;;;;;;;;;;;;;20.01;54.39;100163.81;2075687;28;20324;-67
2021/11/16 03:24:17;;;;;;;;;;;;;;;20.01;54.39;100162.97;2069437;28;20645;-67
2021/11/16 03:25:25;;;;;;;;;;;;;;;20.00;54.45;100162.09;2073391;28;20602;-67
2021/11/16 03:26:27;;;;;;;;;;;;;;;20.00;54.63;100167.56;2074896;28;20007;-67
2021/11/16 03:27:34;;;;;;;;;;;;;;;19.98;54.48;100158.66;2070255;28;19952;-67
2021/11/16 03:28:37;;;;;;;;;;;;;;;19.98;54.65;100164.13;2070658;28;20349;-66
2021/11/16 03:29:43;;;;;;;;;;;;;;;19.99;54.52;100168.59;2074212;28;20515;-67
2021/11/16 03:30:47;;;;;;;;;;;;;;;19.98;54.64;100164.13;2074774;28;19920;-67
2021/11/16 03:31:50;;;;;;;;;;;;;;;19.98;54.49;100166.00;2071643;28;19970;-67
2021/11/16 03:32:50;;;;;;;;;;;;;;;19.97;54.66;100167.91;2076862;28;20317;-67
2021/11/16 03:33:51;;;;;;;;;;;;;;;19.98;54.43;100164.13;2075406;28;20556;-66
2021/11/16 03:34:51;;;;;;;;;;;;;;;19.97;54.56;100167.91;2077481;28;20446;-66
2021/11/16 03:35:52;;;;;;;;;;;;;;;19.98;54.50;100169.59;2074484;28;19916;-66
2021/11/16 03:36:52;;;;;;;;;;;;;;;19.98;54.56;100169.59;2072061;28;19913;-67
2021/11/16 03:37:55;;;;;;;;;;;;;;;19.97;54.53;100167.91;2075924;28;19943;-67
2021/11/16 03:38:57;;;;;;;;;;;;;;;19.97;54.45;100165.16;2074642;28;19921;-66
2021/11/16 03:39:57;;;;;;;;;;;;;;;19.97;54.60;100162.41;2077148;28;19921;-66
2021/11/16 03:40:58;;;;;;;;;;;;;;;19.96;54.66;100155.22;2073921;28;20602;-66
2021/11/16 03:41:58;;;;;;;;;;;;;;;19.96;54.49;100157.94;2075240;28;19917;-66
2021/11/16 03:42:59;;;;;;;;;;;;;;;19.96;54.48;100157.94;2076878;28;20431;-67
2021/11/16 03:43:59;;;;;;;;;;;;;;;19.95;54.68;100158.97;2079331;28;19963;-67
2021/11/16 03:45:00;;;;;;;;;;;;;;;19.94;54.72;100159.97;2075265;28;19921;-67
2021/11/16 03:46:00;;;;;;;;;;;;;;;19.95;54.59;100161.72;2077145;28;19917;-67
2021/11/16 03:47:02;;;;;;;;;;;;;;;19.95;54.71;100158.97;2070828;28;19963;-66
2021/11/16 03:48:02;;;;;;;;;;;;;;;19.95;54.74;100161.72;2074304;28;20678;-66
2021/11/16 03:49:03;;;;;;;;;;;;;;;19.94;54.60;100161.84;2074889;28;20299;-66
2021/11/16 03:50:05;;;;;;;;;;;;;;;19.96;54.66;100165.31;2075012;28;20453;-67
2021/11/16 03:51:05;;;;;;;;;;;;;;;19.94;54.63;100168.19;2073125;28;19920;-66
2021/11/16 03:52:06;;;;;;;;;;;;;;;19.93;54.76;100161.00;2074656;28;20086;-66
2021/11/16 03:53:06;;;;;;;;;;;;;;;19.94;54.71;100167.31;2075043;28;19908;-66
2021/11/16 03:54:08;;;;;;;;;;;;;;;19.93;54.64;100155.53;2076933;28;20434;-67
2021/11/16 03:55:12;;;;;;;;;;;;;;;19.92;54.67;100162.88;2074253;28;19966;-66
2021/11/16 03:56:13;;;;;;;;;;;;;;;19.94;54.76;100162.69;2073629;28;20007;-66
2021/11/16 03:57:13;;;;;;;;;;;;;;;19.92;54.66;100159.28;2076497;28;19923;-66
2021/11/16 03:58:16;;;;;;;;;;;;;;;19.92;54.65;100154.69;2078063;28;20268;-66
2021/11/16 03:59:16;;;;;;;;;;;;;;;19.91;54.70;100155.66;2071787;28;19974;-67
2021/11/16 04:00:18;;;;;;;;;;;;;;;19.92;54.78;100153.81;2073675;28;19924;-67
2021/11/16 04:01:18;;;;;;;;;;;;;;;19.91;54.88;100152.94;2077437;28;20367;-66
2021/11/16 04:02:19;;;;;;;;;;;;;;;19.92;54.78;100156.56;2075922;28;20327;-67
2021/11/16 04:03:22;;;;;;;;;;;;;;;19.91;54.73;100146.59;2077166;28;19917;-66
2021/11/16 04:04:23;;;;;;;;;;;;;;;19.91;54.72;100144.72;2076070;28;20440;-66
2021/11/16 04:05:25;;;;;;;;;;;;;;;19.92;54.79;100142.88;2074603;28;20809;-67
2021/11/16 04:06:25;;;;;;;;;;;;;;;19.91;54.74;100135.66;2073533;28;19921;-67
2021/11/16 04:07:26;;;;;;;;;;;;;;;19.90;54.78;100145.75;2071788;28;19917;-66
2021/11/16 04:08:26;;;;;;;;;;;;;;;19.91;54.89;100132.94;2076251;28;20247;-67
2021/11/16 04:09:26;;;;;;;;;;;;;;;19.91;54.97;100135.66;2074469;28;20017;-67
2021/11/16 04:10:27;;;;;;;;;;;;;;;19.90;54.67;100128.47;2075122;28;19916;-67
2021/11/16 04:11:27;;;;;;;;;;;;;;;19.90;54.85;100134.81;2075792;28;20652;-67
2021/11/16 04:12:28;;;;;;;;;;;;;;;19.91;54.74;100135.66;2073897;28;19956;-67
2021/11/16 04:13:28;;;;;;;;;;;;;;;19.93;54.80;100136.38;2077403;28;20437;-67
2021/11/16 04:14:28;;;;;;;;;;;;;;;19.93;54.86;100136.38;2074981;28;19917;-66
2021/11/16 04:15:30;;;;;;;;;;;;;;;19.94;54.70;100135.34;2076940;28;19917;-66
2021/11/16 04:16:30;;;;;;;;;;;;;;;19.96;54.76;100132.47;2071685;28;19925;-66
2021/11/16 04:17:32;;;;;;;;;;;;;;;19.96;54.74;100141.53;2074536;28;20410;-66
2021/11/16 04:18:33;;;;;;;;;;;;;;;19.96;54.69;100127.84;2075973;28;19963;-66
2021/11/16 04:19:33;;;;;;;;;;;;;;;19.97;54.73;100135.06;2064300;28;19909;-67
2021/11/16 04:20:38;;;;;;;;;;;;;;;19.97;54.65;100129.59;2067007;28;19909;-67
2021/11/16 04:21:39;;;;;;;;;;;;;;;19.98;54.89;100131.31;2076484;28;19917;-67
2021/11/16 04:22:40;;;;;;;;;;;;;;;19.97;54.73;100132.31;2075946;28;20799;-67
2021/11/16 04:23:40;;;;;;;;;;;;;;;19.98;54.84;100136.78;2073651;28;19917;-66
2021/11/16 04:24:41;;;;;;;;;;;;;;;19.99;54.68;100133.03;2072314;28;20605;-66
2021/11/16 04:25:42;;;;;;;;;;;;;;;19.99;54.66;100138.50;2077278;28;19974;-67
2021/11/16 04:26:42;;;;;;;;;;;;;;;19.98;54.80;100136.78;2073043;28;19921;-67
2021/11/16 04:27:43;;;;;;;;;;;;;;;19.99;54.70;100133.03;2074450;28;19921;-66
2021/11/16 04:28:43;;;;;;;;;;;;;;;19.98;54.66;100128.56;2077744;28;19956;-66
2021/11/16 04:29:44;;;;;;;;;;;;;;;19.98;54.56;100130.44;2074330;28;19921;-66
2021/11/16 04:30:44;;;;;;;;;;;;;;;19.99;54.68;100132.16;2074841;28;19927;-67
2021/11/16 04:31:45;;;;;;;;;;;;;;;19.98;54.69;100131.31;2071173;28;19926;-67
2021/11/16 04:32:45;;;;;;;;;;;;;;;19.97;54.83;100132.31;2077737;28;20431;-66
2021/11/16 04:33:45;;;;;;;;;;;;;;;19.98;54.89;100136.78;2076334;28;19939;-66
2021/11/16 04:34:46;;;;;;;;;;;;;;;19.98;54.74;100141.38;2075658;28;20376;-66
2021/11/16 04:35:46;;;;;;;;;;;;;;;19.97;54.73;100140.53;2076702;28;19916;-66
2021/11/16 04:36:47;;;;;;;;;;;;;;;19.97;54.68;100135.06;2073487;28;19921;-66
2021/11/16 04:37:48;;;;;;;;;;;;;;;19.97;54.74;100137.78;2076093;28;19979;-67
2021/11/16 04:38:48;;;;;;;;;;;;;;;19.97;54.71;100139.69;2071042;28;20011;-67
2021/11/16 04:39:49;;;;;;;;;;;;;;;19.97;54.70;100139.69;2074736;28;19928;-67
2021/11/16 04:40:53;;;;;;;;;;;;;;;19.96;54.76;100133.31;2073487;28;19917;-67
2021/11/16 04:41:54;;;;;;;;;;;;;;;19.96;54.61;100138.78;2074240;28;20232;-67
2021/11/16 04:42:56;;;;;;;;;;;;;;;19.96;54.67;100135.22;2073340;28;19923;-67
2021/11/16 04:43:59;;;;;;;;;;;;;;;19.96;54.68;100138.78;2065648;28;19921;-67
2021/11/16 04:44:59;;;;;;;;;;;;;;;19.95;54.76;100142.56;2077255;28;20015;-65
2021/11/16 04:46:06;;;;;;;;;;;;;;;19.95;54.72;100137.09;2074525;28;20371;-64
2021/11/16 04:47:06;;;;;;;;;;;;;;;19.94;54.83;100134.50;2071322;28;19917;-65
2021/11/16 04:48:19;;;;;;;;;;;;;;;19.93;54.84;100133.63;2076102;28;20367;-66
2021/11/16 04:54:31;;;;;;;;;;;;;;;19.91;54.89;100131.03;2051797;28;19910;-66
2021/11/16 04:59:43;;;;;;;;;;;;;;;19.91;54.78;100130.19;2073220;28;20379;-66
2021/11/16 05:03:22;;;;;;;;;;;;;;;19.90;54.91;100139.44;2069904;28;20035;-66
2021/11/16 05:04:22;;;;;;;;;;;;;;;19.89;54.91;100133.09;2071782;28;19917;-66
2021/11/16 05:05:22;;;;;;;;;;;;;;;19.89;54.80;100138.56;2072581;28;20748;-66
2021/11/16 05:06:24;;;;;;;;;;;;;;;19.88;54.82;100125.91;2074753;28;20003;-67
2021/11/16 05:07:27;;;;;;;;;;;;;;;19.89;55.04;100129.47;2075042;28;19966;-66
2021/11/16 05:08:27;;;;;;;;;;;;;;;19.89;55.00;100129.47;2072346;28;20423;-65
2021/11/16 05:09:28;;;;;;;;;;;;;;;19.88;54.92;100130.50;2071395;28;20394;-67
2021/11/16 05:10:28;;;;;;;;;;;;;;;19.87;54.86;100126.91;2074307;28;20227;-66
2021/11/16 05:11:28;;;;;;;;;;;;;;;19.87;55.11;100128.81;2077732;28;20678;-67
2021/11/16 05:12:30;;;;;;;;;;;;;;;19.88;54.92;100130.50;2074688;28;19909;-66
2021/11/16 05:13:30;;;;;;;;;;;;;;;19.86;55.04;100129.81;2076063;28;20027;-66
2021/11/16 05:14:31;;;;;;;;;;;;;;;19.86;54.96;100132.53;2074235;28;19917;-66
2021/11/16 05:15:34;;;;;;;;;;;;;;;19.86;55.05;100132.53;2073693;28;19939;-66
2021/11/16 05:16:34;;;;;;;;;;;;;;;19.86;55.13;100138.00;2076497;28;19917;-66
2021/11/16 05:17:34;;;;;;;;;;;;;;;19.85;55.01;100126.22;2074223;28;19928;-66
2021/11/16 05:18:35;;;;;;;;;;;;;;;19.86;55.03;100132.53;2066692;28;20587;-66
2021/11/16 05:19:36;;;;;;;;;;;;;;;19.85;55.00;100125.34;2062751;28;20050;-66
2021/11/16 05:20:37;;;;;;;;;;;;;;;19.85;55.04;100131.69;2071557;28;19948;-66
2021/11/16 05:21:37;;;;;;;;;;;;;;;19.86;54.99;100132.53;2074878;28;19917;-66
2021/11/16 05:22:37;;;;;;;;;;;;;;;19.85;55.12;100133.56;2072810;28;19967;-67
2021/11/16 05:23:43;;;;;;;;;;;;;;;19.84;55.16;100127.25;2072736;28;19917;-66
2021/11/16 05:24:44;;;;;;;;;;;;;;;19.84;55.04;100132.72;2069898;28;20453;-66
2021/11/16 05:25:54;;;;;;;;;;;;;;;19.84;55.10;100129.09;2073529;28;20839;-66
2021/11/16 05:26:55;;;;;;;;;;;;;;;19.83;55.06;100143.78;2070845;28;19917;-66